This is the latest recevied weather packets stored in our database for station/object W7DBO-3. If no packets are shown the sender has not sent any weather packets the latest 10 day(s).
| Time | Temp. | Humidity | Pressure | Rain* | Wind** | Luminosity | Snow |
|---|---|---|---|---|---|---|---|
| 1777914006 | 23.33° C | 36% | 1004.8 hPa | 0 mm | - | - | - |
| 1777910405 | 21.11° C | 36% | 1005.9 hPa | 0 mm | - | - | - |
| 1777906806 | 19.44° C | 44% | 1007.4 hPa | 0 mm | - | - | - |
| 1777903206 | 15° C | 59% | 1009.7 hPa | 0 mm | - | - | - |
| 1777899605 | 12.78° C | 67% | 1011 hPa | 0 mm | - | - | - |
| 1777896006 | 13.89° C | 62% | 1010.5 hPa | 0 mm | - | - | - |
| 1777892406 | 13.89° C | 58% | 1010.4 hPa | 0 mm | - | - | - |
| 1777888805 | 12.22° C | 60% | 1011.2 hPa | 0 mm | - | - | - |
| 1777885205 | 12.78° C | 49% | 1010.5 hPa | 0 mm | - | - | - |
| 1777881606 | 12.78° C | 54% | 1010.4 hPa | 0 mm | - | - | - |
| 1777878006 | 10° C | 49% | 1011.2 hPa | 0 mm | - | - | - |
| 1777874405 | 11.67° C | 46% | 1010.6 hPa | 0 mm | - | - | - |
| 1777870805 | 13.89° C | 37% | 1009.5 hPa | 0 mm | - | - | - |
| 1777867206 | 16.67° C | 28% | 1008.1 hPa | 0 mm | - | - | - |
| 1777863605 | 18.33° C | 25% | 1006.9 hPa | 0 mm | - | - | - |
| 1777860005 | 22.22° C | 18% | 1004.5 hPa | 0 mm | - | - | - |
| 1777856406 | 23.89° C | 17% | 1004.1 hPa | 0 mm | - | - | - |
| 1777852806 | 25.56° C | 16% | 1003.4 hPa | 0 mm | - | - | - |
| 1777849205 | 28.33° C | 13% | 1002.5 hPa | 0 mm | - | - | - |
| 1777845605 | 27.22° C | 12% | 1004 hPa | 0 mm | - | - | - |
| 1777842006 | 26.67° C | 16% | 1005.6 hPa | 0 mm | - | - | - |
| 1777838405 | 26.67° C | 17% | 1006.9 hPa | 0 mm | - | - | - |
| 1777834805 | 26.67° C | 21% | 1007.7 hPa | 0 mm | - | - | - |
| 1777831206 | 22.78° C | 24% | 1010.6 hPa | 0 mm | - | - | - |
| 1777827606 | 22.78° C | 24% | 1011.2 hPa | 0 mm | - | - | - |
* Rain latest hour (hover to see other rain measurements)
** Current wind speed in m/s (hover to see current wind gust speed)